Terminal Aerodrome Forecast
Issued by NWS

Home | Current Version | Previous Version | Text Only | Print | Product List | Glossary Off
Versions: 1 2 3 4 5 6 7 8 9 10 11 12 13 14 15 16 17 18 19 20 21 22 23 24 25 26 27 28 29 30 31 32 33 34

987
FTUS43 KLOT 182107 AAA
TAFORD
TAF AMD
KORD 182107Z 1821/1924 13006KT P6SM SCT250
     FM190200 22005KT P6SM SCT120 BKN250
     FM190600 22005KT P6SM BKN060 PROB30 1908/1914 5SM -TSRA
      BKN050CB
     FM191400 25008KT P6SM BKN080
     FM191700 05008KT P6SM SCT015 BKN050=

USA.gov is the U.S. government's official web portal to all federal, state and local government web resources and services.